sensor_id;sensor_type;location;lat;lon;timestamp;P1;durP1;ratioP1;P2;durP2;ratioP2
71679;SDS011;59512;42.662;23.254;2023-08-08T00:01:36;4.00;;;1.33;;
71679;SDS011;59512;42.662;23.254;2023-08-08T00:04:01;3.13;;;1.27;;
71679;SDS011;59512;42.662;23.254;2023-08-08T00:06:26;4.40;;;1.40;;
71679;SDS011;59512;42.662;23.254;2023-08-08T00:08:52;3.67;;;1.50;;
71679;SDS011;59512;42.662;23.254;2023-08-08T00:11:17;3.90;;;1.60;;
71679;SDS011;59512;42.662;23.254;2023-08-08T00:13:43;4.23;;;1.80;;
71679;SDS011;59512;42.662;23.254;2023-08-08T00:16:08;5.28;;;1.80;;
71679;SDS011;59512;42.662;23.254;2023-08-08T00:18:34;4.37;;;1.80;;
71679;SDS011;59512;42.662;23.254;2023-08-08T00:20:59;4.30;;;1.70;;
71679;SDS011;59512;42.662;23.254;2023-08-08T00:23:25;3.97;;;1.70;;
71679;SDS011;59512;42.662;23.254;2023-08-08T00:25:50;4.65;;;1.85;;
71679;SDS011;59512;42.662;23.254;2023-08-08T00:28:16;4.78;;;1.90;;
71679;SDS011;59512;42.662;23.254;2023-08-08T00:30:42;4.50;;;1.92;;
71679;SDS011;59512;42.662;23.254;2023-08-08T00:33:08;4.70;;;2.03;;
71679;SDS011;59512;42.662;23.254;2023-08-08T00:35:33;4.20;;;1.97;;
71679;SDS011;59512;42.662;23.254;2023-08-08T00:37:59;4.70;;;2.27;;
71679;SDS011;59512;42.662;23.254;2023-08-08T00:40:24;4.43;;;2.13;;
71679;SDS011;59512;42.662;23.254;2023-08-08T00:42:50;4.30;;;2.13;;
71679;SDS011;59512;42.662;23.254;2023-08-08T00:45:15;5.10;;;2.50;;
71679;SDS011;59512;42.662;23.254;2023-08-08T00:47:40;4.87;;;2.40;;
71679;SDS011;59512;42.662;23.254;2023-08-08T00:50:06;4.60;;;2.33;;
71679;SDS011;59512;42.662;23.254;2023-08-08T00:52:32;5.40;;;2.28;;
71679;SDS011;59512;42.662;23.254;2023-08-08T00:54:58;4.75;;;2.63;;
71679;SDS011;59512;42.662;23.254;2023-08-08T00:57:24;5.33;;;2.33;;
71679;SDS011;59512;42.662;23.254;2023-08-08T00:59:50;4.60;;;2.20;;
71679;SDS011;59512;42.662;23.254;2023-08-08T01:02:16;5.32;;;2.70;;
71679;SDS011;59512;42.662;23.254;2023-08-08T01:04:41;4.27;;;2.27;;
71679;SDS011;59512;42.662;23.254;2023-08-08T01:10:04;4.87;;;2.90;;
71679;SDS011;59512;42.662;23.254;2023-08-08T01:12:32;4.65;;;2.50;;
71679;SDS011;59512;42.662;23.254;2023-08-08T01:15:00;4.82;;;2.40;;
71679;SDS011;59512;42.662;23.254;2023-08-08T01:17:26;4.00;;;2.10;;
71679;SDS011;59512;42.662;23.254;2023-08-08T01:19:51;5.28;;;2.13;;
71679;SDS011;59512;42.662;23.254;2023-08-08T01:22:22;5.37;;;2.20;;
71679;SDS011;59512;42.662;23.254;2023-08-08T01:24:50;4.38;;;2.00;;
71679;SDS011;59512;42.662;23.254;2023-08-08T01:27:17;4.65;;;2.28;;
71679;SDS011;59512;42.662;23.254;2023-08-08T01:29:42;4.47;;;2.00;;
71679;SDS011;59512;42.662;23.254;2023-08-08T01:32:08;4.57;;;1.90;;
71679;SDS011;59512;42.662;23.254;2023-08-08T01:34:35;4.30;;;2.00;;
71679;SDS011;59512;42.662;23.254;2023-08-08T01:37:14;4.10;;;1.85;;
71679;SDS011;59512;42.662;23.254;2023-08-08T01:39:42;5.72;;;2.17;;
71679;SDS011;59512;42.662;23.254;2023-08-08T01:42:08;4.47;;;2.27;;
71679;SDS011;59512;42.662;23.254;2023-08-08T01:44:35;4.43;;;2.17;;
71679;SDS011;59512;42.662;23.254;2023-08-08T01:47:01;5.63;;;2.15;;
71679;SDS011;59512;42.662;23.254;2023-08-08T01:49:27;4.37;;;2.10;;
71679;SDS011;59512;42.662;23.254;2023-08-08T01:51:52;5.13;;;2.15;;
71679;SDS011;59512;42.662;23.254;2023-08-08T01:54:18;4.10;;;1.97;;
71679;SDS011;59512;42.662;23.254;2023-08-08T01:56:44;4.53;;;2.13;;
71679;SDS011;59512;42.662;23.254;2023-08-08T01:59:09;4.87;;;2.10;;
71679;SDS011;59512;42.662;23.254;2023-08-08T02:01:35;6.03;;;2.30;;
71679;SDS011;59512;42.662;23.254;2023-08-08T02:04:00;4.40;;;2.13;;
71679;SDS011;59512;42.662;23.254;2023-08-08T02:06:26;4.70;;;2.50;;
71679;SDS011;59512;42.662;23.254;2023-08-08T02:08:51;4.40;;;2.10;;
71679;SDS011;59512;42.662;23.254;2023-08-08T02:11:16;5.50;;;2.40;;
71679;SDS011;59512;42.662;23.254;2023-08-08T02:13:42;3.80;;;1.70;;
71679;SDS011;59512;42.662;23.254;2023-08-08T02:16:07;4.40;;;2.10;;
71679;SDS011;59512;42.662;23.254;2023-08-08T02:18:33;4.90;;;2.33;;
71679;SDS011;59512;42.662;23.254;2023-08-08T02:20:58;4.20;;;2.08;;
71679;SDS011;59512;42.662;23.254;2023-08-08T02:23:23;4.70;;;2.20;;
71679;SDS011;59512;42.662;23.254;2023-08-08T02:25:49;4.97;;;2.50;;
71679;SDS011;59512;42.662;23.254;2023-08-08T02:28:14;4.10;;;2.13;;
71679;SDS011;59512;42.662;23.254;2023-08-08T02:30:40;4.60;;;2.50;;
71679;SDS011;59512;42.662;23.254;2023-08-08T02:33:05;5.00;;;2.20;;
71679;SDS011;59512;42.662;23.254;2023-08-08T02:35:31;4.82;;;2.00;;
71679;SDS011;59512;42.662;23.254;2023-08-08T02:37:56;4.97;;;2.30;;
71679;SDS011;59512;42.662;23.254;2023-08-08T02:40:22;4.90;;;2.40;;
71679;SDS011;59512;42.662;23.254;2023-08-08T02:42:51;5.00;;;2.33;;
71679;SDS011;59512;42.662;23.254;2023-08-08T02:45:17;5.63;;;2.53;;
71679;SDS011;59512;42.662;23.254;2023-08-08T02:47:42;4.73;;;2.60;;
71679;SDS011;59512;42.662;23.254;2023-08-08T02:50:08;5.05;;;2.60;;
71679;SDS011;59512;42.662;23.254;2023-08-08T02:52:33;4.78;;;2.40;;
71679;SDS011;59512;42.662;23.254;2023-08-08T02:54:59;7.07;;;2.73;;
71679;SDS011;59512;42.662;23.254;2023-08-08T02:57:24;6.00;;;3.20;;
71679;SDS011;59512;42.662;23.254;2023-08-08T02:59:50;5.88;;;2.83;;
71679;SDS011;59512;42.662;23.254;2023-08-08T03:02:15;4.87;;;2.80;;
71679;SDS011;59512;42.662;23.254;2023-08-08T03:04:41;5.30;;;2.90;;
71679;SDS011;59512;42.662;23.254;2023-08-08T03:07:06;5.30;;;3.00;;
71679;SDS011;59512;42.662;23.254;2023-08-08T03:09:31;5.30;;;3.13;;
71679;SDS011;59512;42.662;23.254;2023-08-08T03:11:57;5.43;;;3.10;;
71679;SDS011;59512;42.662;23.254;2023-08-08T03:14:22;5.33;;;2.93;;
71679;SDS011;59512;42.662;23.254;2023-08-08T03:16:48;5.13;;;3.03;;
71679;SDS011;59512;42.662;23.254;2023-08-08T03:19:13;5.33;;;2.90;;
71679;SDS011;59512;42.662;23.254;2023-08-08T03:21:38;6.03;;;3.30;;
71679;SDS011;59512;42.662;23.254;2023-08-08T03:24:04;5.95;;;3.38;;
71679;SDS011;59512;42.662;23.254;2023-08-08T03:26:30;5.73;;;3.67;;
71679;SDS011;59512;42.662;23.254;2023-08-08T03:28:55;5.70;;;3.57;;
71679;SDS011;59512;42.662;23.254;2023-08-08T03:31:21;6.13;;;3.40;;
71679;SDS011;59512;42.662;23.254;2023-08-08T03:33:46;6.53;;;4.22;;
71679;SDS011;59512;42.662;23.254;2023-08-08T03:36:12;6.15;;;3.70;;
71679;SDS011;59512;42.662;23.254;2023-08-08T03:38:38;6.33;;;3.73;;
71679;SDS011;59512;42.662;23.254;2023-08-08T03:41:04;7.00;;;3.87;;
71679;SDS011;59512;42.662;23.254;2023-08-08T03:43:30;5.43;;;3.58;;
71679;SDS011;59512;42.662;23.254;2023-08-08T03:45:55;6.43;;;3.60;;
71679;SDS011;59512;42.662;23.254;2023-08-08T03:48:21;5.50;;;3.63;;
71679;SDS011;59512;42.662;23.254;2023-08-08T03:50:46;5.27;;;3.50;;
71679;SDS011;59512;42.662;23.254;2023-08-08T03:53:12;5.90;;;3.90;;
71679;SDS011;59512;42.662;23.254;2023-08-08T03:55:37;8.48;;;3.92;;
71679;SDS011;59512;42.662;23.254;2023-08-08T03:58:03;7.10;;;3.70;;
71679;SDS011;59512;42.662;23.254;2023-08-08T04:00:28;7.10;;;3.70;;
71679;SDS011;59512;42.662;23.254;2023-08-08T04:02:54;5.47;;;3.30;;
71679;SDS011;59512;42.662;23.254;2023-08-08T04:05:19;6.23;;;3.70;;
71679;SDS011;59512;42.662;23.254;2023-08-08T04:07:45;6.07;;;4.13;;
71679;SDS011;59512;42.662;23.254;2023-08-08T04:10:10;8.03;;;4.03;;
71679;SDS011;59512;42.662;23.254;2023-08-08T04:12:36;6.80;;;4.10;;
71679;SDS011;59512;42.662;23.254;2023-08-08T04:15:01;6.85;;;4.15;;
71679;SDS011;59512;42.662;23.254;2023-08-08T04:17:27;6.37;;;3.90;;
71679;SDS011;59512;42.662;23.254;2023-08-08T04:19:52;6.57;;;4.10;;
71679;SDS011;59512;42.662;23.254;2023-08-08T04:22:17;7.80;;;4.73;;
71679;SDS011;59512;42.662;23.254;2023-08-08T04:24:43;6.63;;;4.60;;
71679;SDS011;59512;42.662;23.254;2023-08-08T04:27:08;6.83;;;4.37;;
71679;SDS011;59512;42.662;23.254;2023-08-08T04:29:35;6.18;;;4.00;;
71679;SDS011;59512;42.662;23.254;2023-08-08T04:32:01;7.83;;;4.43;;
71679;SDS011;59512;42.662;23.254;2023-08-08T04:34:26;6.53;;;4.18;;
71679;SDS011;59512;42.662;23.254;2023-08-08T04:36:51;7.03;;;4.23;;
71679;SDS011;59512;42.662;23.254;2023-08-08T04:39:18;8.07;;;4.37;;
71679;SDS011;59512;42.662;23.254;2023-08-08T04:41:44;6.68;;;4.32;;
71679;SDS011;59512;42.662;23.254;2023-08-08T04:44:09;7.17;;;3.70;;
71679;SDS011;59512;42.662;23.254;2023-08-08T04:46:35;7.63;;;4.27;;
71679;SDS011;59512;42.662;23.254;2023-08-08T04:49:00;5.63;;;3.67;;
71679;SDS011;59512;42.662;23.254;2023-08-08T04:51:25;5.87;;;3.17;;
71679;SDS011;59512;42.662;23.254;2023-08-08T04:53:51;6.67;;;3.70;;
71679;SDS011;59512;42.662;23.254;2023-08-08T04:56:16;5.87;;;3.80;;
71679;SDS011;59512;42.662;23.254;2023-08-08T04:58:42;5.47;;;3.80;;
71679;SDS011;59512;42.662;23.254;2023-08-08T05:01:07;6.43;;;4.30;;
71679;SDS011;59512;42.662;23.254;2023-08-08T05:03:36;7.03;;;4.03;;
71679;SDS011;59512;42.662;23.254;2023-08-08T05:06:02;5.63;;;3.83;;
71679;SDS011;59512;42.662;23.254;2023-08-08T05:08:28;6.10;;;3.80;;
71679;SDS011;59512;42.662;23.254;2023-08-08T05:10:53;6.13;;;3.75;;
71679;SDS011;59512;42.662;23.254;2023-08-08T05:13:18;8.13;;;6.20;;
71679;SDS011;59512;42.662;23.254;2023-08-08T05:15:44;6.03;;;3.60;;
71679;SDS011;59512;42.662;23.254;2023-08-08T05:18:09;6.33;;;3.37;;
71679;SDS011;59512;42.662;23.254;2023-08-08T05:20:35;6.33;;;3.37;;
71679;SDS011;59512;42.662;23.254;2023-08-08T05:23:00;5.07;;;3.30;;
71679;SDS011;59512;42.662;23.254;2023-08-08T05:25:26;5.70;;;3.35;;
71679;SDS011;59512;42.662;23.254;2023-08-08T05:27:51;6.22;;;3.63;;
71679;SDS011;59512;42.662;23.254;2023-08-08T05:30:18;5.67;;;3.53;;
71679;SDS011;59512;42.662;23.254;2023-08-08T05:32:44;5.75;;;3.88;;
71679;SDS011;59512;42.662;23.254;2023-08-08T05:35:09;5.40;;;3.20;;
71679;SDS011;59512;42.662;23.254;2023-08-08T05:37:35;6.18;;;3.85;;
71679;SDS011;59512;42.662;23.254;2023-08-08T05:40:00;7.10;;;3.40;;
71679;SDS011;59512;42.662;23.254;2023-08-08T05:42:25;6.20;;;3.23;;
71679;SDS011;59512;42.662;23.254;2023-08-08T05:44:51;7.40;;;3.90;;
71679;SDS011;59512;42.662;23.254;2023-08-08T05:47:16;6.00;;;3.87;;
71679;SDS011;59512;42.662;23.254;2023-08-08T05:49:42;8.63;;;4.25;;
71679;SDS011;59512;42.662;23.254;2023-08-08T05:52:07;6.93;;;4.90;;
71679;SDS011;59512;42.662;23.254;2023-08-08T05:54:33;7.13;;;4.85;;
71679;SDS011;59512;42.662;23.254;2023-08-08T05:56:59;9.10;;;4.60;;
71679;SDS011;59512;42.662;23.254;2023-08-08T05:59:24;7.80;;;4.83;;
71679;SDS011;59512;42.662;23.254;2023-08-08T06:01:49;7.57;;;5.70;;
71679;SDS011;59512;42.662;23.254;2023-08-08T06:04:15;6.70;;;5.07;;
71679;SDS011;59512;42.662;23.254;2023-08-08T06:06:40;6.80;;;4.57;;
71679;SDS011;59512;42.662;23.254;2023-08-08T06:09:06;7.80;;;4.63;;
71679;SDS011;59512;42.662;23.254;2023-08-08T06:11:33;7.43;;;4.20;;
71679;SDS011;59512;42.662;23.254;2023-08-08T06:13:59;6.30;;;4.17;;
71679;SDS011;59512;42.662;23.254;2023-08-08T06:16:24;6.40;;;4.78;;
71679;SDS011;59512;42.662;23.254;2023-08-08T06:18:51;6.10;;;4.60;;
71679;SDS011;59512;42.662;23.254;2023-08-08T06:21:17;6.30;;;4.18;;
71679;SDS011;59512;42.662;23.254;2023-08-08T06:23:42;7.17;;;4.40;;
71679;SDS011;59512;42.662;23.254;2023-08-08T06:26:07;6.17;;;4.03;;
71679;SDS011;59512;42.662;23.254;2023-08-08T06:28:34;6.20;;;3.72;;
71679;SDS011;59512;42.662;23.254;2023-08-08T06:31:00;5.97;;;3.93;;
71679;SDS011;59512;42.662;23.254;2023-08-08T06:33:26;7.97;;;3.80;;
71679;SDS011;59512;42.662;23.254;2023-08-08T06:35:51;5.90;;;3.57;;
71679;SDS011;59512;42.662;23.254;2023-08-08T06:38:17;5.68;;;3.78;;
71679;SDS011;59512;42.662;23.254;2023-08-08T06:40:42;5.60;;;3.30;;
71679;SDS011;59512;42.662;23.254;2023-08-08T06:43:08;5.03;;;2.77;;
71679;SDS011;59512;42.662;23.254;2023-08-08T06:45:33;5.85;;;3.40;;
71679;SDS011;59512;42.662;23.254;2023-08-08T06:47:59;6.83;;;3.27;;
71679;SDS011;59512;42.662;23.254;2023-08-08T06:50:25;4.50;;;2.27;;
71679;SDS011;59512;42.662;23.254;2023-08-08T06:52:50;4.60;;;2.50;;
71679;SDS011;59512;42.662;23.254;2023-08-08T06:55:16;5.70;;;2.43;;
71679;SDS011;59512;42.662;23.254;2023-08-08T06:57:41;6.07;;;2.57;;
71679;SDS011;59512;42.662;23.254;2023-08-08T07:00:07;4.47;;;2.67;;
71679;SDS011;59512;42.662;23.254;2023-08-08T07:02:33;6.20;;;2.90;;
71679;SDS011;59512;42.662;23.254;2023-08-08T07:04:59;4.50;;;2.42;;
71679;SDS011;59512;42.662;23.254;2023-08-08T07:07:24;5.53;;;2.97;;
71679;SDS011;59512;42.662;23.254;2023-08-08T07:09:50;4.40;;;2.20;;
71679;SDS011;59512;42.662;23.254;2023-08-08T07:12:15;5.75;;;2.42;;
71679;SDS011;59512;42.662;23.254;2023-08-08T07:14:41;5.40;;;2.50;;
71679;SDS011;59512;42.662;23.254;2023-08-08T07:17:07;5.00;;;2.45;;
71679;SDS011;59512;42.662;23.254;2023-08-08T07:19:32;6.40;;;2.70;;
71679;SDS011;59512;42.662;23.254;2023-08-08T07:21:57;5.43;;;2.70;;
71679;SDS011;59512;42.662;23.254;2023-08-08T07:24:23;4.70;;;2.20;;
71679;SDS011;59512;42.662;23.254;2023-08-08T07:26:53;4.70;;;1.70;;
71679;SDS011;59512;42.662;23.254;2023-08-08T07:29:22;4.15;;;1.83;;
71679;SDS011;59512;42.662;23.254;2023-08-08T07:31:48;4.93;;;2.20;;
71679;SDS011;59512;42.662;23.254;2023-08-08T07:34:13;4.10;;;2.00;;
71679;SDS011;59512;42.662;23.254;2023-08-08T07:36:39;4.15;;;1.85;;
71679;SDS011;59512;42.662;23.254;2023-08-08T07:39:04;4.97;;;1.70;;
71679;SDS011;59512;42.662;23.254;2023-08-08T07:41:30;4.40;;;1.80;;
71679;SDS011;59512;42.662;23.254;2023-08-08T07:43:55;3.95;;;1.73;;
71679;SDS011;59512;42.662;23.254;2023-08-08T07:46:21;3.73;;;1.50;;
71679;SDS011;59512;42.662;23.254;2023-08-08T07:48:47;4.43;;;1.73;;
71679;SDS011;59512;42.662;23.254;2023-08-08T07:51:13;5.67;;;1.93;;
71679;SDS011;59512;42.662;23.254;2023-08-08T07:53:38;4.37;;;1.67;;
71679;SDS011;59512;42.662;23.254;2023-08-08T07:56:03;5.27;;;1.90;;
71679;SDS011;59512;42.662;23.254;2023-08-08T07:58:29;4.63;;;2.10;;
71679;SDS011;59512;42.662;23.254;2023-08-08T08:00:56;5.57;;;1.90;;
71679;SDS011;59512;42.662;23.254;2023-08-08T08:03:22;5.07;;;1.90;;
71679;SDS011;59512;42.662;23.254;2023-08-08T08:05:47;4.13;;;1.70;;
71679;SDS011;59512;42.662;23.254;2023-08-08T08:08:13;4.40;;;1.50;;
71679;SDS011;59512;42.662;23.254;2023-08-08T08:10:39;3.95;;;1.60;;
71679;SDS011;59512;42.662;23.254;2023-08-08T08:13:05;5.27;;;2.00;;
71679;SDS011;59512;42.662;23.254;2023-08-08T08:15:30;3.60;;;1.63;;
71679;SDS011;59512;42.662;23.254;2023-08-08T08:17:56;3.73;;;1.70;;
71679;SDS011;59512;42.662;23.254;2023-08-08T08:20:21;4.18;;;2.00;;
71679;SDS011;59512;42.662;23.254;2023-08-08T08:22:46;4.87;;;2.17;;
71679;SDS011;59512;42.662;23.254;2023-08-08T08:25:12;5.50;;;2.00;;
71679;SDS011;59512;42.662;23.254;2023-08-08T08:27:39;4.20;;;1.70;;
71679;SDS011;59512;42.662;23.254;2023-08-08T08:30:04;3.70;;;1.70;;
71679;SDS011;59512;42.662;23.254;2023-08-08T08:32:32;4.60;;;1.90;;
71679;SDS011;59512;42.662;23.254;2023-08-08T08:34:59;3.65;;;1.58;;
71679;SDS011;59512;42.662;23.254;2023-08-08T08:37:25;3.90;;;1.57;;
71679;SDS011;59512;42.662;23.254;2023-08-08T08:39:50;4.43;;;1.92;;
71679;SDS011;59512;42.662;23.254;2023-08-08T08:42:16;3.90;;;1.70;;
71679;SDS011;59512;42.662;23.254;2023-08-08T08:44:41;5.47;;;2.30;;
71679;SDS011;59512;42.662;23.254;2023-08-08T08:47:07;4.63;;;2.00;;
71679;SDS011;59512;42.662;23.254;2023-08-08T08:49:37;4.57;;;2.10;;
71679;SDS011;59512;42.662;23.254;2023-08-08T08:52:03;4.70;;;2.28;;
71679;SDS011;59512;42.662;23.254;2023-08-08T08:54:31;5.28;;;2.58;;
71679;SDS011;59512;42.662;23.254;2023-08-08T08:56:57;4.72;;;2.30;;
71679;SDS011;59512;42.662;23.254;2023-08-08T08:59:22;7.60;;;2.63;;
71679;SDS011;59512;42.662;23.254;2023-08-08T09:01:48;4.82;;;2.35;;
71679;SDS011;59512;42.662;23.254;2023-08-08T09:04:15;4.50;;;2.17;;
71679;SDS011;59512;42.662;23.254;2023-08-08T09:06:42;4.60;;;2.00;;
71679;SDS011;59512;42.662;23.254;2023-08-08T09:09:08;4.38;;;2.00;;
71679;SDS011;59512;42.662;23.254;2023-08-08T09:11:34;4.43;;;2.00;;
71679;SDS011;59512;42.662;23.254;2023-08-08T09:13:59;5.72;;;2.50;;
71679;SDS011;59512;42.662;23.254;2023-08-08T09:16:25;4.50;;;1.90;;
71679;SDS011;59512;42.662;23.254;2023-08-08T09:18:51;5.20;;;1.90;;
71679;SDS011;59512;42.662;23.254;2023-08-08T09:21:18;3.65;;;1.85;;
71679;SDS011;59512;42.662;23.254;2023-08-08T09:23:43;5.00;;;2.35;;
71679;SDS011;59512;42.662;23.254;2023-08-08T09:26:09;7.20;;;2.10;;
71679;SDS011;59512;42.662;23.254;2023-08-08T09:28:35;3.80;;;1.90;;
71679;SDS011;59512;42.662;23.254;2023-08-08T09:31:00;4.30;;;2.30;;
71679;SDS011;59512;42.662;23.254;2023-08-08T09:33:28;4.50;;;2.17;;
71679;SDS011;59512;42.662;23.254;2023-08-08T09:35:54;4.13;;;2.10;;
71679;SDS011;59512;42.662;23.254;2023-08-08T09:38:20;5.43;;;2.10;;
71679;SDS011;59512;42.662;23.254;2023-08-08T09:40:45;4.00;;;2.23;;
71679;SDS011;59512;42.662;23.254;2023-08-08T09:43:11;4.30;;;2.37;;
71679;SDS011;59512;42.662;23.254;2023-08-08T09:45:38;4.50;;;2.45;;
71679;SDS011;59512;42.662;23.254;2023-08-08T09:48:05;4.57;;;2.40;;
71679;SDS011;59512;42.662;23.254;2023-08-08T09:50:31;4.63;;;2.20;;
71679;SDS011;59512;42.662;23.254;2023-08-08T09:52:58;5.03;;;1.90;;
71679;SDS011;59512;42.662;23.254;2023-08-08T09:55:24;4.32;;;2.22;;
71679;SDS011;59512;42.662;23.254;2023-08-08T09:57:50;4.95;;;2.40;;
71679;SDS011;59512;42.662;23.254;2023-08-08T10:00:16;4.32;;;2.50;;
71679;SDS011;59512;42.662;23.254;2023-08-08T10:02:42;5.13;;;2.20;;
71679;SDS011;59512;42.662;23.254;2023-08-08T10:05:09;4.50;;;2.30;;
71679;SDS011;59512;42.662;23.254;2023-08-08T10:07:35;4.20;;;2.10;;
71679;SDS011;59512;42.662;23.254;2023-08-08T10:10:00;4.07;;;2.17;;
71679;SDS011;59512;42.662;23.254;2023-08-08T10:12:26;4.50;;;2.30;;
71679;SDS011;59512;42.662;23.254;2023-08-08T10:14:51;4.67;;;2.13;;
71679;SDS011;59512;42.662;23.254;2023-08-08T10:17:17;5.78;;;2.80;;
71679;SDS011;59512;42.662;23.254;2023-08-08T10:19:55;3.80;;;1.97;;
71679;SDS011;59512;42.662;23.254;2023-08-08T10:22:21;5.72;;;2.05;;
71679;SDS011;59512;42.662;23.254;2023-08-08T10:24:54;4.88;;;2.20;;
71679;SDS011;59512;42.662;23.254;2023-08-08T10:30:14;3.75;;;1.70;;
71679;SDS011;59512;42.662;23.254;2023-08-08T10:32:41;4.63;;;1.90;;
71679;SDS011;59512;42.662;23.254;2023-08-08T10:35:11;5.18;;;1.90;;
71679;SDS011;59512;42.662;23.254;2023-08-08T10:37:37;3.78;;;1.80;;
71679;SDS011;59512;42.662;23.254;2023-08-08T10:40:03;4.00;;;1.80;;
71679;SDS011;59512;42.662;23.254;2023-08-08T10:42:32;4.18;;;2.00;;
71679;SDS011;59512;42.662;23.254;2023-08-08T10:44:59;6.38;;;2.35;;
71679;SDS011;59512;42.662;23.254;2023-08-08T10:47:33;4.03;;;2.00;;
71679;SDS011;59512;42.662;23.254;2023-08-08T10:52:29;3.88;;;1.60;;
71679;SDS011;59512;42.662;23.254;2023-08-08T10:54:55;5.10;;;1.85;;
71679;SDS011;59512;42.662;23.254;2023-08-08T10:57:23;5.47;;;1.70;;
71679;SDS011;59512;42.662;23.254;2023-08-08T10:59:49;3.50;;;1.70;;
71679;SDS011;59512;42.662;23.254;2023-08-08T11:02:15;3.80;;;1.40;;
71679;SDS011;59512;42.662;23.254;2023-08-08T11:04:40;3.92;;;1.55;;
71679;SDS011;59512;42.662;23.254;2023-08-08T11:07:06;3.43;;;1.53;;
71679;SDS011;59512;42.662;23.254;2023-08-08T11:09:32;3.83;;;1.60;;
71679;SDS011;59512;42.662;23.254;2023-08-08T11:11:57;3.92;;;1.50;;
71679;SDS011;59512;42.662;23.254;2023-08-08T11:14:23;4.20;;;1.50;;
71679;SDS011;59512;42.662;23.254;2023-08-08T11:16:49;5.63;;;2.03;;
71679;SDS011;59512;42.662;23.254;2023-08-08T11:19:16;3.83;;;1.60;;
71679;SDS011;59512;42.662;23.254;2023-08-08T11:21:42;3.35;;;1.50;;
71679;SDS011;59512;42.662;23.254;2023-08-08T11:24:08;3.80;;;1.50;;
71679;SDS011;59512;42.662;23.254;2023-08-08T11:26:34;4.23;;;1.83;;
71679;SDS011;59512;42.662;23.254;2023-08-08T11:29:01;3.25;;;1.40;;
71679;SDS011;59512;42.662;23.254;2023-08-08T11:31:27;3.70;;;1.70;;
71679;SDS011;59512;42.662;23.254;2023-08-08T11:33:54;4.43;;;1.60;;
71679;SDS011;59512;42.662;23.254;2023-08-08T11:36:20;3.90;;;1.60;;
71679;SDS011;59512;42.662;23.254;2023-08-08T11:38:47;3.73;;;1.57;;
71679;SDS011;59512;42.662;23.254;2023-08-08T11:41:13;3.92;;;1.73;;
71679;SDS011;59512;42.662;23.254;2023-08-08T11:43:40;3.00;;;1.30;;
71679;SDS011;59512;42.662;23.254;2023-08-08T11:46:09;5.22;;;1.67;;
71679;SDS011;59512;42.662;23.254;2023-08-08T11:48:35;3.33;;;1.47;;
71679;SDS011;59512;42.662;23.254;2023-08-08T11:51:06;3.58;;;1.58;;
71679;SDS011;59512;42.662;23.254;2023-08-08T11:53:32;3.22;;;1.65;;
71679;SDS011;59512;42.662;23.254;2023-08-08T11:55:59;3.75;;;1.40;;
71679;SDS011;59512;42.662;23.254;2023-08-08T11:58:24;3.28;;;1.50;;
71679;SDS011;59512;42.662;23.254;2023-08-08T12:00:50;4.00;;;1.50;;
71679;SDS011;59512;42.662;23.254;2023-08-08T12:03:16;3.92;;;1.63;;
71679;SDS011;59512;42.662;23.254;2023-08-08T12:05:44;3.70;;;1.40;;
71679;SDS011;59512;42.662;23.254;2023-08-08T12:08:17;3.15;;;1.58;;
71679;SDS011;59512;42.662;23.254;2023-08-08T12:10:47;3.30;;;1.50;;
71679;SDS011;59512;42.662;23.254;2023-08-08T12:13:19;3.50;;;1.60;;
71679;SDS011;59512;42.662;23.254;2023-08-08T12:15:49;3.47;;;1.60;;
71679;SDS011;59512;42.662;23.254;2023-08-08T12:18:17;3.13;;;1.40;;
71679;SDS011;59512;42.662;23.254;2023-08-08T12:20:44;4.07;;;1.67;;
71679;SDS011;59512;42.662;23.254;2023-08-08T12:23:10;3.17;;;1.40;;
71679;SDS011;59512;42.662;23.254;2023-08-08T12:25:35;3.58;;;1.25;;
71679;SDS011;59512;42.662;23.254;2023-08-08T12:28:01;4.40;;;1.77;;
71679;SDS011;59512;42.662;23.254;2023-08-08T12:30:27;4.00;;;1.80;;
71679;SDS011;59512;42.662;23.254;2023-08-08T12:32:52;4.27;;;1.80;;
71679;SDS011;59512;42.662;23.254;2023-08-08T12:35:18;4.80;;;2.10;;
71679;SDS011;59512;42.662;23.254;2023-08-08T12:37:45;4.18;;;1.70;;
71679;SDS011;59512;42.662;23.254;2023-08-08T12:40:11;3.83;;;1.65;;
71679;SDS011;59512;42.662;23.254;2023-08-08T12:42:36;3.50;;;1.63;;
71679;SDS011;59512;42.662;23.254;2023-08-08T12:45:02;5.55;;;1.85;;
71679;SDS011;59512;42.662;23.254;2023-08-08T12:47:28;3.87;;;1.60;;
71679;SDS011;59512;42.662;23.254;2023-08-08T12:49:54;3.50;;;1.70;;
71679;SDS011;59512;42.662;23.254;2023-08-08T12:52:19;4.33;;;1.73;;
71679;SDS011;59512;42.662;23.254;2023-08-08T12:54:45;3.75;;;1.60;;
71679;SDS011;59512;42.662;23.254;2023-08-08T12:57:10;5.10;;;2.27;;
71679;SDS011;59512;42.662;23.254;2023-08-08T12:59:36;5.27;;;1.80;;
71679;SDS011;59512;42.662;23.254;2023-08-08T13:02:02;3.53;;;1.65;;
71679;SDS011;59512;42.662;23.254;2023-08-08T13:04:27;5.50;;;1.50;;
71679;SDS011;59512;42.662;23.254;2023-08-08T13:06:53;4.25;;;1.73;;
71679;SDS011;59512;42.662;23.254;2023-08-08T13:09:18;4.47;;;1.60;;
71679;SDS011;59512;42.662;23.254;2023-08-08T13:11:44;3.83;;;1.60;;
71679;SDS011;59512;42.662;23.254;2023-08-08T13:14:10;4.30;;;1.67;;
71679;SDS011;59512;42.662;23.254;2023-08-08T13:16:36;3.08;;;1.45;;
71679;SDS011;59512;42.662;23.254;2023-08-08T13:19:01;3.10;;;1.30;;
71679;SDS011;59512;42.662;23.254;2023-08-08T13:21:28;4.28;;;1.52;;
71679;SDS011;59512;42.662;23.254;2023-08-08T13:23:53;3.80;;;1.40;;
71679;SDS011;59512;42.662;23.254;2023-08-08T13:26:19;4.03;;;1.57;;
71679;SDS011;59512;42.662;23.254;2023-08-08T13:28:44;3.83;;;1.50;;
71679;SDS011;59512;42.662;23.254;2023-08-08T13:31:10;3.60;;;1.50;;
71679;SDS011;59512;42.662;23.254;2023-08-08T13:33:35;4.97;;;1.60;;
71679;SDS011;59512;42.662;23.254;2023-08-08T13:36:01;3.70;;;1.40;;
71679;SDS011;59512;42.662;23.254;2023-08-08T13:38:26;4.83;;;1.60;;
71679;SDS011;59512;42.662;23.254;2023-08-08T13:40:52;3.72;;;1.50;;
71679;SDS011;59512;42.662;23.254;2023-08-08T13:43:18;5.10;;;1.50;;
71679;SDS011;59512;42.662;23.254;2023-08-08T13:45:43;3.53;;;1.60;;
71679;SDS011;59512;42.662;23.254;2023-08-08T13:48:09;4.45;;;1.45;;
71679;SDS011;59512;42.662;23.254;2023-08-08T13:50:35;3.35;;;1.40;;
71679;SDS011;59512;42.662;23.254;2023-08-08T13:53:00;3.50;;;1.67;;
71679;SDS011;59512;42.662;23.254;2023-08-08T13:55:26;5.33;;;1.67;;
71679;SDS011;59512;42.662;23.254;2023-08-08T13:57:52;4.50;;;1.73;;
71679;SDS011;59512;42.662;23.254;2023-08-08T14:00:19;4.63;;;1.60;;
71679;SDS011;59512;42.662;23.254;2023-08-08T14:02:45;4.23;;;1.60;;
71679;SDS011;59512;42.662;23.254;2023-08-08T14:05:10;4.77;;;2.00;;
71679;SDS011;59512;42.662;23.254;2023-08-08T14:07:36;3.72;;;1.77;;
71679;SDS011;59512;42.662;23.254;2023-08-08T14:10:02;3.33;;;1.50;;
71679;SDS011;59512;42.662;23.254;2023-08-08T14:12:29;3.58;;;1.60;;
71679;SDS011;59512;42.662;23.254;2023-08-08T14:14:54;4.75;;;1.63;;
71679;SDS011;59512;42.662;23.254;2023-08-08T14:17:20;5.20;;;1.60;;
71679;SDS011;59512;42.662;23.254;2023-08-08T14:19:45;4.30;;;1.60;;
71679;SDS011;59512;42.662;23.254;2023-08-08T14:22:10;5.28;;;1.90;;
71679;SDS011;59512;42.662;23.254;2023-08-08T14:24:36;4.20;;;1.67;;
71679;SDS011;59512;42.662;23.254;2023-08-08T14:27:02;4.45;;;1.60;;
71679;SDS011;59512;42.662;23.254;2023-08-08T14:29:27;4.15;;;1.50;;
71679;SDS011;59512;42.662;23.254;2023-08-08T14:31:53;4.53;;;2.10;;
71679;SDS011;59512;42.662;23.254;2023-08-08T14:34:18;3.90;;;1.67;;